createdAt,value
2018-06-14T00:00:43.090Z,84.37
2018-06-14T00:03:11.622Z,85.01
2018-06-14T00:05:40.119Z,85.04
2018-06-14T00:08:08.631Z,85.05
2018-06-14T00:10:37.123Z,84.93
2018-06-14T00:13:06.726Z,84.85
2018-06-14T00:15:35.388Z,84.70
2018-06-14T00:18:03.976Z,85.06
2018-06-14T00:20:34.962Z,84.32
2018-06-14T00:23:03.580Z,84.23
2018-06-14T00:25:32.071Z,84.20
2018-06-14T00:28:02.578Z,84.12
2018-06-14T00:30:31.218Z,84.16
2018-06-14T00:33:00.947Z,84.32
2018-06-14T00:35:29.417Z,83.75
2018-06-14T00:37:57.930Z,83.63
2018-06-14T00:40:26.395Z,83.44
2018-06-14T00:42:55.082Z,83.07
2018-06-14T00:45:24.819Z,83.24
2018-06-14T00:47:53.289Z,82.91
2018-06-14T00:50:21.798Z,83.26
2018-06-14T00:52:50.265Z,83.04
2018-06-14T00:55:20.362Z,83.29
2018-06-14T00:57:48.963Z,83.17
2018-06-14T01:00:17.462Z,82.99
2018-06-14T01:02:45.967Z,82.86
2018-06-14T01:05:14.485Z,82.64
2018-06-14T01:07:42.957Z,82.55
2018-06-14T01:10:11.474Z,82.64
2018-06-14T01:12:39.971Z,82.45
2018-06-14T01:15:08.459Z,82.31
2018-06-14T01:17:36.956Z,82.05
2018-06-14T01:20:05.819Z,81.84
2018-06-14T01:22:34.492Z,81.74
2018-06-14T01:25:02.977Z,81.96
2018-06-14T01:27:31.462Z,82.00
2018-06-14T01:30:00.405Z,81.74
2018-06-14T01:32:28.889Z,81.60
2018-06-14T01:34:57.414Z,81.87
2018-06-14T01:37:37.607Z,82.31
2018-06-14T01:40:06.095Z,82.31
2018-06-14T01:42:34.573Z,82.17
2018-06-14T01:45:03.089Z,82.03
2018-06-14T01:47:31.663Z,82.06
2018-06-14T01:50:00.145Z,81.92
2018-06-14T01:52:28.605Z,82.16
2018-06-14T01:54:57.246Z,81.97
2018-06-14T01:57:25.733Z,82.00
2018-06-14T01:59:54.249Z,81.96
2018-06-14T02:02:22.759Z,82.06
2018-06-14T02:04:51.218Z,81.64
2018-06-14T02:07:20.129Z,81.57
2018-06-14T02:09:48.623Z,81.50
2018-06-14T02:12:17.242Z,81.75
2018-06-14T02:14:45.771Z,81.86
2018-06-14T02:17:14.274Z,81.66
2018-06-14T02:19:42.773Z,81.64
2018-06-14T02:22:11.275Z,81.56
2018-06-14T02:24:39.767Z,81.45
2018-06-14T02:27:08.599Z,82.08
2018-06-14T02:29:37.090Z,82.08
2018-06-14T02:33:35.024Z,82.13
2018-06-14T02:36:03.609Z,82.75
2018-06-14T02:38:32.108Z,82.51
2018-06-14T02:41:00.793Z,82.59
2018-06-14T02:43:29.292Z,82.87
2018-06-14T02:45:57.923Z,82.87
2018-06-14T02:48:26.660Z,82.62
2018-06-14T02:50:55.268Z,82.85
2018-06-14T02:53:23.772Z,82.52
2018-06-14T02:55:52.445Z,82.91
2018-06-14T02:58:21.176Z,82.66
2018-06-14T03:00:49.666Z,82.34
2018-06-14T03:03:18.158Z,82.58
2018-06-14T03:05:46.684Z,82.25
2018-06-14T03:08:15.182Z,82.52
2018-06-14T03:10:43.711Z,82.37
2018-06-14T03:13:12.209Z,82.59
2018-06-14T03:15:40.819Z,82.73
2018-06-14T03:18:09.350Z,82.61
2018-06-14T03:20:37.849Z,82.22
2018-06-14T03:23:06.422Z,81.96
2018-06-14T03:25:34.955Z,82.00
2018-06-14T03:28:03.459Z,82.00
2018-06-14T03:30:32.026Z,81.86
2018-06-14T03:33:00.578Z,81.58
2018-06-14T03:35:29.102Z,81.14
2018-06-14T03:37:57.646Z,81.02
2018-06-14T03:40:26.727Z,81.08
2018-06-14T03:42:55.278Z,80.67
2018-06-14T03:45:28.051Z,80.23
2018-06-14T03:47:56.545Z,80.21
2018-06-14T03:50:25.058Z,80.01
2018-06-14T03:52:53.683Z,79.80
2018-06-14T03:55:22.278Z,79.34
2018-06-14T03:57:50.775Z,79.15
2018-06-14T04:00:19.298Z,78.43
2018-06-14T04:02:47.851Z,78.24
2018-06-14T04:05:16.406Z,78.11
2018-06-14T04:07:44.891Z,77.03
2018-06-14T04:10:13.439Z,75.35
2018-06-14T04:12:41.981Z,75.94
2018-06-14T04:15:10.478Z,75.96
2018-06-14T04:17:38.989Z,75.28
2018-06-14T04:20:07.663Z,74.94
2018-06-14T04:22:36.172Z,74.58
2018-06-14T04:25:04.804Z,74.14
2018-06-14T04:27:33.450Z,73.38
2018-06-14T04:30:02.343Z,72.35
2018-06-14T04:32:30.895Z,72.32
2018-06-14T04:34:59.407Z,73.33
2018-06-14T04:37:27.950Z,74.10
2018-06-14T04:39:56.472Z,72.92
2018-06-14T04:42:25.035Z,73.83
2018-06-14T04:44:53.732Z,74.03
2018-06-14T04:47:22.225Z,72.68
2018-06-14T04:49:50.741Z,71.73
2018-06-14T04:52:19.736Z,72.84
2018-06-14T04:54:48.815Z,72.92
2018-06-14T04:57:17.729Z,72.97
2018-06-14T04:59:46.260Z,72.37
2018-06-14T05:02:14.934Z,73.25
2018-06-14T05:04:43.461Z,71.79
2018-06-14T05:07:12.004Z,71.06
2018-06-14T05:09:40.502Z,70.39
2018-06-14T05:12:08.990Z,70.91
2018-06-14T05:14:37.582Z,68.74
2018-06-14T05:17:06.158Z,68.44
2018-06-14T05:19:34.690Z,69.13
2018-06-14T05:22:03.171Z,68.26
2018-06-14T05:24:31.808Z,66.60
2018-06-14T05:27:00.295Z,63.57
2018-06-14T05:29:28.873Z,62.86
2018-06-14T05:31:57.366Z,63.13
2018-06-14T05:34:25.878Z,63.63
2018-06-14T05:36:54.409Z,63.80
2018-06-14T05:39:22.930Z,63.21
2018-06-14T05:41:51.434Z,62.24
2018-06-14T05:44:19.982Z,60.90
2018-06-14T05:46:48.515Z,59.90
2018-06-14T05:49:17.003Z,61.18
2018-06-14T05:51:45.646Z,62.60
2018-06-14T05:54:14.156Z,60.74
2018-06-14T05:56:42.678Z,59.16
2018-06-14T05:59:11.228Z,60.01
2018-06-14T06:01:39.747Z,62.15
2018-06-14T06:04:08.271Z,58.96
2018-06-14T06:06:36.818Z,57.47
2018-06-14T06:09:09.078Z,58.61
2018-06-14T06:11:37.603Z,57.16
2018-06-14T06:14:06.145Z,57.44
2018-06-14T06:16:34.639Z,59.31
2018-06-14T06:19:03.739Z,59.28
2018-06-14T06:21:32.495Z,59.14
2018-06-14T06:24:01.065Z,57.44
2018-06-14T06:26:29.565Z,56.12
2018-06-14T06:28:58.086Z,55.58
2018-06-14T06:31:26.796Z,57.96
2018-06-14T06:33:55.304Z,57.64
2018-06-14T06:36:23.852Z,58.53
2018-06-14T06:38:52.592Z,57.62
2018-06-14T06:41:21.095Z,55.71
2018-06-14T06:43:49.610Z,56.89
2018-06-14T06:46:18.274Z,58.75
2018-06-14T06:48:47.249Z,58.40
2018-06-14T06:51:16.052Z,56.93
2018-06-14T06:53:44.581Z,55.85
2018-06-14T06:56:13.057Z,53.43
2018-06-14T06:58:41.653Z,53.28
2018-06-14T07:01:10.127Z,56.13
2018-06-14T07:03:38.642Z,55.98
2018-06-14T07:06:07.394Z,55.10
2018-06-14T07:08:35.870Z,55.44
2018-06-14T07:11:04.374Z,53.49
2018-06-14T07:13:32.861Z,53.71
2018-06-14T07:16:01.566Z,55.07
2018-06-14T07:18:30.102Z,57.41
2018-06-14T07:20:58.586Z,57.85
2018-06-14T07:23:27.112Z,58.63
2018-06-14T07:25:55.623Z,58.36
2018-06-14T07:28:24.127Z,59.78
2018-06-14T07:30:52.650Z,58.45
2018-06-14T07:33:21.210Z,59.12
2018-06-14T07:35:49.711Z,57.98
2018-06-14T07:38:18.237Z,58.63
2018-06-14T07:40:46.763Z,58.03
2018-06-14T07:43:15.287Z,58.07
2018-06-14T07:45:44.518Z,58.47
2018-06-14T07:48:12.998Z,57.62
2018-06-14T07:50:41.482Z,57.00
2018-06-14T07:53:10.000Z,57.37
2018-06-14T07:55:38.503Z,57.25
2018-06-14T07:58:07.070Z,56.74
2018-06-14T08:00:35.554Z,57.12
2018-06-14T08:03:04.122Z,56.84
2018-06-14T08:05:32.637Z,55.74
2018-06-14T08:08:01.188Z,56.39
2018-06-14T08:10:29.700Z,55.95
2018-06-14T08:12:58.362Z,56.95
2018-06-14T08:15:26.867Z,56.16
2018-06-14T08:17:55.376Z,54.42
2018-06-14T08:20:23.894Z,55.13
2018-06-14T08:22:52.650Z,54.29
2018-06-14T08:25:21.155Z,53.49
2018-06-14T08:27:49.706Z,53.57
2018-06-14T08:30:18.220Z,53.73
2018-06-14T08:32:48.414Z,54.81
2018-06-14T08:35:16.942Z,55.09
2018-06-14T08:37:45.433Z,52.67
2018-06-14T08:40:13.938Z,52.52
2018-06-14T08:42:42.415Z,52.44
2018-06-14T08:45:11.367Z,53.67
2018-06-14T08:47:39.871Z,53.66
2018-06-14T08:50:08.398Z,53.40
2018-06-14T08:52:36.910Z,51.23
2018-06-14T08:55:05.575Z,52.45
2018-06-14T08:57:34.555Z,53.08
2018-06-14T09:00:03.108Z,52.20
2018-06-14T09:02:31.619Z,50.83
2018-06-14T09:05:00.882Z,50.85
2018-06-14T09:07:29.372Z,50.64
2018-06-14T09:09:57.910Z,52.20
2018-06-14T09:12:26.447Z,51.38
2018-06-14T09:14:54.942Z,52.02
2018-06-14T09:17:23.557Z,51.84
2018-06-14T09:19:52.283Z,50.95
2018-06-14T09:22:20.799Z,50.70
2018-06-14T09:24:49.525Z,49.83
2018-06-14T09:27:18.018Z,49.10
2018-06-14T09:29:46.534Z,49.35
2018-06-14T09:32:15.077Z,49.81
2018-06-14T09:34:43.758Z,49.71
2018-06-14T09:37:12.262Z,50.70
2018-06-14T09:39:40.774Z,49.35
2018-06-14T09:42:09.351Z,49.14
2018-06-14T09:44:37.887Z,49.19
2018-06-14T09:47:06.543Z,48.51
2018-06-14T09:49:35.039Z,49.27
2018-06-14T09:52:03.583Z,46.50
2018-06-14T09:54:32.234Z,47.58
2018-06-14T09:57:01.251Z,47.35
2018-06-14T09:59:29.756Z,48.70
2018-06-14T10:01:58.499Z,47.21
2018-06-14T10:04:27.010Z,48.25
2018-06-14T10:06:55.522Z,46.46
2018-06-14T10:09:24.069Z,47.63
2018-06-14T10:11:52.592Z,46.15
2018-06-14T10:14:21.481Z,46.16
2018-06-14T10:16:49.987Z,47.49
2018-06-14T10:19:18.486Z,45.46
2018-06-14T10:21:47.253Z,46.09
2018-06-14T10:24:15.761Z,45.33
2018-06-14T10:26:44.978Z,46.49
2018-06-14T10:29:13.511Z,45.71
2018-06-14T10:31:42.030Z,45.56
2018-06-14T10:34:10.574Z,45.91
2018-06-14T10:36:39.109Z,46.77
2018-06-14T10:39:08.334Z,46.71
2018-06-14T10:41:36.979Z,47.54
2018-06-14T10:44:05.498Z,45.04
2018-06-14T10:46:34.014Z,47.35
2018-06-14T10:49:02.515Z,47.49
2018-06-14T10:51:31.368Z,47.37
2018-06-14T10:53:59.853Z,46.90
2018-06-14T10:56:28.374Z,47.74
2018-06-14T10:58:56.981Z,47.26
2018-06-14T11:01:25.484Z,46.90
2018-06-14T11:03:54.130Z,46.21
2018-06-14T11:06:22.676Z,46.36
2018-06-14T11:08:51.167Z,48.41
2018-06-14T11:11:19.794Z,45.96
2018-06-14T11:13:48.464Z,45.42
2018-06-14T11:16:16.967Z,45.76
2018-06-14T11:18:45.466Z,46.51
2018-06-14T11:21:14.008Z,48.43
2018-06-14T11:23:42.523Z,46.23
2018-06-14T11:26:11.082Z,46.33
2018-06-14T11:28:39.835Z,46.83
2018-06-14T11:31:08.530Z,45.54
2018-06-14T11:33:37.038Z,45.33
2018-06-14T11:36:05.676Z,45.33
2018-06-14T11:38:34.233Z,46.38
2018-06-14T11:41:02.736Z,44.51
2018-06-14T11:43:31.263Z,45.37
2018-06-14T11:45:59.878Z,44.89
2018-06-14T11:48:28.354Z,45.65
2018-06-14T11:50:56.850Z,46.29
2018-06-14T11:53:25.898Z,47.82
2018-06-14T11:55:54.430Z,46.59
2018-06-14T11:58:22.913Z,46.94
2018-06-14T12:00:51.423Z,48.33
2018-06-14T12:03:20.499Z,47.45
2018-06-14T12:05:48.970Z,48.50
2018-06-14T12:08:17.503Z,47.67
2018-06-14T12:10:46.119Z,51.95
2018-06-14T12:13:14.953Z,52.59
2018-06-14T12:15:43.448Z,52.84
2018-06-14T12:18:12.166Z,53.56
2018-06-14T12:20:40.727Z,52.54
2018-06-14T12:23:09.463Z,51.94
2018-06-14T12:25:37.999Z,52.27
2018-06-14T12:28:06.710Z,51.37
2018-06-14T12:30:35.211Z,52.20
2018-06-14T12:33:03.718Z,51.34
2018-06-14T12:35:32.239Z,49.19
2018-06-14T12:38:00.754Z,49.86
2018-06-14T12:40:29.941Z,50.18
2018-06-14T12:42:58.431Z,50.83
2018-06-14T12:45:26.986Z,52.67
2018-06-14T12:47:55.469Z,53.30
2018-06-14T12:50:23.971Z,51.62
2018-06-14T12:52:52.652Z,53.18
2018-06-14T12:55:21.143Z,52.67
2018-06-14T12:57:49.655Z,52.19
2018-06-14T13:00:18.167Z,52.62
2018-06-14T13:02:46.680Z,52.88
2018-06-14T13:05:15.323Z,53.48
2018-06-14T13:07:43.813Z,53.48
2018-06-14T13:10:12.406Z,53.70
2018-06-14T13:12:41.323Z,54.55
2018-06-14T13:15:09.850Z,54.12
2018-06-14T13:17:38.479Z,52.56
2018-06-14T13:20:07.542Z,53.12
2018-06-14T13:22:36.030Z,53.39
2018-06-14T13:25:04.646Z,54.37
2018-06-14T13:27:33.163Z,56.77
2018-06-14T13:30:02.374Z,56.19
2018-06-14T13:32:30.914Z,56.45
2018-06-14T13:34:59.403Z,57.97
2018-06-14T13:37:27.936Z,59.73
2018-06-14T13:39:56.439Z,60.25
2018-06-14T13:42:24.977Z,63.84
2018-06-14T13:44:53.609Z,65.55
2018-06-14T13:47:22.087Z,67.05
2018-06-14T13:49:50.589Z,65.75
2018-06-14T13:52:19.107Z,68.02
2018-06-14T13:54:47.624Z,68.09
2018-06-14T13:57:16.179Z,68.40
2018-06-14T13:59:44.690Z,67.73
2018-06-14T14:02:13.228Z,69.06
2018-06-14T14:04:41.831Z,68.66
2018-06-14T14:07:11.392Z,69.66
2018-06-14T14:09:39.924Z,68.65
2018-06-14T14:12:08.440Z,67.79
2018-06-14T14:14:37.111Z,69.47
2018-06-14T14:17:05.590Z,69.32
2018-06-14T14:19:34.080Z,70.95
2018-06-14T14:22:02.578Z,70.66
2018-06-14T14:24:31.052Z,68.51
2018-06-14T14:26:59.575Z,69.37
2018-06-14T14:29:28.090Z,68.06
2018-06-14T14:31:56.602Z,66.48
2018-06-14T14:34:25.127Z,66.48
2018-06-14T14:36:54.148Z,66.75
2018-06-14T14:39:22.665Z,65.96
2018-06-14T14:41:51.148Z,66.83
2018-06-14T14:44:19.674Z,67.15
2018-06-14T14:46:48.184Z,68.01
2018-06-14T14:49:16.695Z,68.22
2018-06-14T14:51:45.188Z,67.76
2018-06-14T14:54:13.749Z,68.10
2018-06-14T14:56:42.281Z,68.21
2018-06-14T14:59:10.894Z,67.81
2018-06-14T15:01:39.405Z,68.09
2018-06-14T15:04:07.923Z,68.68
2018-06-14T15:06:36.518Z,67.76
2018-06-14T15:09:07.686Z,67.22
2018-06-14T15:11:36.239Z,68.26
2018-06-14T15:14:04.849Z,67.48
2018-06-14T15:16:33.373Z,67.92
2018-06-14T15:19:02.316Z,67.73
2018-06-14T15:21:30.824Z,67.92
2018-06-14T15:23:59.360Z,66.98
2018-06-14T15:26:27.927Z,66.66
2018-06-14T15:28:56.511Z,67.14
2018-06-14T15:31:25.111Z,67.48
2018-06-14T15:33:54.498Z,67.44
2018-06-14T15:36:23.057Z,67.23
2018-06-14T15:38:51.652Z,67.53
2018-06-14T15:41:20.389Z,68.20
2018-06-14T15:43:48.907Z,68.37
2018-06-14T15:46:17.628Z,68.18
2018-06-14T15:48:46.236Z,69.01
2018-06-14T15:51:14.693Z,67.94
2018-06-14T15:53:43.223Z,68.90
2018-06-14T15:56:28.231Z,67.00
2018-06-14T15:58:56.809Z,66.32
2018-06-14T16:01:25.331Z,67.76
2018-06-14T16:03:54.420Z,66.33
2018-06-14T16:06:22.921Z,65.72
2018-06-14T16:08:51.418Z,65.80
2018-06-14T16:11:20.096Z,66.80
2018-06-14T16:13:48.635Z,66.94
2018-06-14T16:16:17.168Z,67.28
2018-06-14T16:18:45.689Z,66.44
2018-06-14T16:21:14.248Z,67.23
2018-06-14T16:23:43.038Z,67.03
2018-06-14T16:26:11.622Z,66.81
2018-06-14T16:28:40.975Z,68.46
2018-06-14T16:31:09.583Z,70.75
2018-06-14T16:33:38.126Z,75.59
2018-06-14T16:36:06.643Z,77.84
2018-06-14T16:38:35.232Z,77.85
2018-06-14T16:41:03.880Z,79.98
2018-06-14T16:43:32.661Z,81.17
2018-06-14T16:46:01.416Z,81.92
2018-06-14T16:48:29.863Z,82.67
2018-06-14T16:50:59.111Z,83.73
2018-06-14T16:53:27.866Z,84.78
2018-06-14T16:55:56.413Z,84.48
2018-06-14T16:58:25.003Z,85.01
2018-06-14T17:00:53.526Z,84.49
2018-06-14T17:03:22.594Z,85.19
2018-06-14T17:05:51.077Z,84.69
2018-06-14T17:08:20.462Z,85.68
2018-06-14T17:10:49.084Z,84.91
2018-06-14T17:13:18.791Z,85.30
2018-06-14T17:15:47.413Z,84.76
2018-06-14T17:18:16.442Z,84.31
2018-06-14T17:20:44.980Z,82.75
2018-06-14T17:23:14.386Z,82.64
2018-06-14T17:25:43.024Z,84.08
2018-06-14T17:28:11.951Z,84.38
2018-06-14T17:30:40.494Z,83.50
2018-06-14T17:33:09.053Z,84.36
2018-06-14T17:35:37.603Z,84.09
2018-06-14T17:38:07.155Z,84.68
2018-06-14T17:40:35.811Z,85.04
2018-06-14T17:43:04.305Z,85.28
2018-06-14T17:45:32.916Z,86.22
2018-06-14T17:48:01.409Z,86.34
2018-06-14T17:50:29.914Z,86.76
2018-06-14T17:53:01.400Z,87.11
2018-06-14T17:55:29.975Z,86.97
2018-06-14T17:57:59.459Z,87.21
2018-06-14T18:00:28.053Z,87.69
2018-06-14T18:02:56.595Z,88.07
2018-06-14T18:05:25.074Z,88.86
2018-06-14T18:07:53.765Z,88.63
2018-06-14T18:10:22.441Z,88.96
2018-06-14T18:12:51.225Z,88.88
2018-06-14T18:15:19.811Z,89.46
2018-06-14T18:17:48.651Z,89.39
2018-06-14T18:20:17.275Z,89.58
2018-06-14T18:22:45.779Z,90.03
2018-06-14T18:25:14.732Z,90.50
2018-06-14T18:27:43.347Z,89.91
2018-06-14T18:30:11.872Z,89.82
2018-06-14T18:32:40.939Z,89.85
2018-06-14T18:35:09.573Z,89.84
2018-06-14T18:37:38.327Z,90.42
2018-06-14T18:40:07.396Z,90.73
2018-06-14T18:42:36.202Z,91.05
2018-06-14T18:45:05.203Z,91.01
2018-06-14T18:47:33.816Z,90.55
2018-06-14T18:50:02.370Z,90.64
2018-06-14T18:52:31.078Z,90.71
2018-06-14T18:54:59.687Z,90.92
2018-06-14T18:57:28.251Z,91.10
2018-06-14T18:59:56.749Z,90.87
2018-06-14T19:02:25.285Z,91.03
2018-06-14T19:04:53.798Z,91.03
2018-06-14T19:07:22.709Z,91.16
2018-06-14T19:09:51.263Z,90.50
2018-06-14T19:12:20.182Z,91.20
2018-06-14T19:14:48.780Z,90.97
2018-06-14T19:17:17.362Z,90.56
2018-06-14T19:19:45.913Z,90.97
2018-06-14T19:22:14.558Z,91.21
2018-06-14T19:24:43.146Z,91.42
2018-06-14T19:27:11.655Z,90.90
2018-06-14T19:29:40.187Z,90.59
2018-06-14T19:32:08.791Z,90.79
2018-06-14T19:34:37.297Z,90.37
2018-06-14T19:37:05.900Z,90.85
2018-06-14T19:39:34.474Z,90.64
2018-06-14T19:42:03.103Z,90.71
2018-06-14T19:44:31.703Z,90.56
2018-06-14T19:47:01.406Z,90.62
2018-06-14T19:49:29.932Z,90.67
2018-06-14T19:51:58.610Z,90.73
2018-06-14T19:54:27.871Z,90.76
2018-06-14T19:56:56.539Z,90.20
2018-06-14T19:59:25.140Z,91.08
2018-06-14T20:01:53.642Z,90.65
2018-06-14T20:04:23.387Z,91.12
2018-06-14T20:06:51.988Z,91.46
2018-06-14T20:09:20.493Z,91.22
2018-06-14T20:11:49.030Z,91.40
2018-06-14T20:14:17.566Z,91.34
2018-06-14T20:16:46.200Z,91.83
2018-06-14T20:19:15.267Z,91.43
2018-06-14T20:21:43.803Z,91.62
2018-06-14T20:24:12.443Z,91.30
2018-06-14T20:26:41.698Z,91.27
2018-06-14T20:29:10.171Z,91.10
2018-06-14T20:31:38.672Z,91.31
2018-06-14T20:34:07.439Z,91.74
2018-06-14T20:36:36.022Z,92.07
2018-06-14T20:39:07.164Z,91.89
2018-06-14T20:41:35.756Z,91.82
2018-06-14T20:44:04.659Z,91.84
2018-06-14T20:46:33.171Z,92.11
2018-06-14T20:49:01.690Z,92.23
2018-06-14T20:51:30.229Z,91.90
2018-06-14T20:53:58.767Z,91.78
2018-06-14T20:56:27.314Z,92.01
2018-06-14T20:58:55.826Z,92.19
2018-06-14T21:01:24.318Z,92.09
2018-06-14T21:03:53.523Z,92.13
2018-06-14T21:06:22.243Z,92.15
2018-06-14T21:08:55.110Z,92.32
2018-06-14T21:11:23.672Z,92.26
2018-06-14T21:13:52.176Z,92.15
2018-06-14T21:16:21.143Z,92.53
2018-06-14T21:18:49.725Z,92.32
2018-06-14T21:21:18.353Z,92.23
2018-06-14T21:23:47.252Z,91.69
2018-06-14T21:26:15.776Z,92.00
2018-06-14T21:28:44.311Z,92.36
2018-06-14T21:31:16.914Z,91.79
2018-06-14T21:33:45.492Z,92.33
2018-06-14T21:36:13.995Z,92.65
2018-06-14T21:38:42.510Z,92.96
2018-06-14T21:41:11.454Z,93.12
2018-06-14T21:43:39.958Z,93.12
2018-06-14T21:46:08.587Z,93.29
2018-06-14T21:48:41.780Z,93.35
2018-06-14T21:51:10.618Z,93.42
2018-06-14T21:53:39.861Z,93.81
2018-06-14T21:56:08.648Z,93.54
2018-06-14T21:58:37.258Z,93.79
2018-06-14T22:01:06.048Z,93.29
2018-06-14T22:03:40.307Z,93.46
2018-06-14T22:06:09.006Z,93.53
2018-06-14T22:08:37.564Z,93.63
2018-06-14T22:11:06.066Z,93.46
2018-06-14T22:13:34.984Z,93.23
2018-06-14T22:16:03.489Z,93.41
2018-06-14T22:18:31.954Z,93.57
2018-06-14T22:21:00.965Z,93.60
2018-06-14T22:23:29.478Z,93.95
2018-06-14T22:25:57.982Z,93.67
2018-06-14T22:28:28.675Z,93.52
2018-06-14T22:30:57.173Z,93.59
2018-06-14T22:33:37.012Z,93.81
2018-06-14T22:36:05.630Z,93.82
2018-06-14T22:38:34.317Z,93.62
2018-06-14T22:41:02.850Z,93.99
2018-06-14T22:43:31.446Z,93.68
2018-06-14T22:45:59.939Z,94.14
2018-06-14T22:48:28.446Z,94.41
2018-06-14T22:51:08.327Z,94.41
2018-06-14T22:53:36.825Z,94.19
2018-06-14T22:56:06.388Z,94.13
2018-06-14T22:58:35.033Z,94.44
2018-06-14T23:01:36.342Z,94.20
2018-06-14T23:04:05.412Z,94.40
2018-06-14T23:06:33.966Z,94.63
2018-06-14T23:09:12.257Z,94.80
2018-06-14T23:11:40.842Z,94.88
2018-06-14T23:14:09.338Z,95.05
2018-06-14T23:16:37.880Z,95.35
2018-06-14T23:19:06.400Z,95.05
2018-06-14T23:21:34.944Z,95.34
2018-06-14T23:24:03.461Z,95.63
2018-06-14T23:26:31.966Z,95.86
2018-06-14T23:29:00.515Z,96.19
2018-06-14T23:31:29.075Z,96.42
2018-06-14T23:33:57.576Z,96.20
2018-06-14T23:36:26.151Z,96.22
2018-06-14T23:38:54.719Z,96.80
2018-06-14T23:41:23.235Z,96.52
2018-06-14T23:43:52.257Z,96.78
2018-06-14T23:48:56.171Z,97.07
2018-06-14T23:51:25.499Z,97.02
2018-06-14T23:53:57.657Z,97.11
2018-06-14T23:56:28.237Z,97.45
2018-06-14T23:59:03.396Z,97.43
